sensor_id;sensor_type;location;lat;lon;timestamp;temperature;humidity
26053;DHT22;13826;51.186;4.450;2023-02-13T00:02:11;8.30;93.50
26053;DHT22;13826;51.186;4.450;2023-02-13T00:04:38;8.40;92.40
26053;DHT22;13826;51.186;4.450;2023-02-13T00:07:04;8.60;90.40
26053;DHT22;13826;51.186;4.450;2023-02-13T00:09:29;8.60;86.00
26053;DHT22;13826;51.186;4.450;2023-02-13T00:11:55;8.40;90.20
26053;DHT22;13826;51.186;4.450;2023-02-13T00:14:20;8.30;90.70
26053;DHT22;13826;51.186;4.450;2023-02-13T00:16:46;8.20;93.30
26053;DHT22;13826;51.186;4.450;2023-02-13T00:19:11;8.10;94.00
26053;DHT22;13826;51.186;4.450;2023-02-13T00:21:37;8.10;93.90
26053;DHT22;13826;51.186;4.450;2023-02-13T00:24:03;7.90;96.80
26053;DHT22;13826;51.186;4.450;2023-02-13T00:26:28;7.90;97.60
26053;DHT22;13826;51.186;4.450;2023-02-13T00:28:55;7.90;97.10
26053;DHT22;13826;51.186;4.450;2023-02-13T00:31:20;8.00;95.50
26053;DHT22;13826;51.186;4.450;2023-02-13T00:33:46;7.80;95.90
26053;DHT22;13826;51.186;4.450;2023-02-13T00:36:13;7.70;96.60
26053;DHT22;13826;51.186;4.450;2023-02-13T00:38:39;7.60;99.90
26053;DHT22;13826;51.186;4.450;2023-02-13T00:41:05;7.50;99.90
26053;DHT22;13826;51.186;4.450;2023-02-13T00:43:31;7.50;99.80
26053;DHT22;13826;51.186;4.450;2023-02-13T00:45:57;7.50;99.60
26053;DHT22;13826;51.186;4.450;2023-02-13T00:48:26;7.50;99.80
26053;DHT22;13826;51.186;4.450;2023-02-13T00:50:52;7.40;99.40
26053;DHT22;13826;51.186;4.450;2023-02-13T00:53:19;7.40;99.90
26053;DHT22;13826;51.186;4.450;2023-02-13T00:55:44;7.50;98.70
26053;DHT22;13826;51.186;4.450;2023-02-13T00:58:10;7.50;97.20
26053;DHT22;13826;51.186;4.450;2023-02-13T01:00:36;7.50;95.70
26053;DHT22;13826;51.186;4.450;2023-02-13T01:03:01;7.40;95.30
26053;DHT22;13826;51.186;4.450;2023-02-13T01:05:27;7.50;94.10
26053;DHT22;13826;51.186;4.450;2023-02-13T01:07:53;7.40;93.40
26053;DHT22;13826;51.186;4.450;2023-02-13T01:10:18;7.30;93.50
26053;DHT22;13826;51.186;4.450;2023-02-13T01:12:44;7.30;93.10
26053;DHT22;13826;51.186;4.450;2023-02-13T01:15:09;7.30;92.60
26053;DHT22;13826;51.186;4.450;2023-02-13T01:17:35;7.30;93.00
26053;DHT22;13826;51.186;4.450;2023-02-13T01:20:07;7.20;93.60
26053;DHT22;13826;51.186;4.450;2023-02-13T01:22:33;7.20;93.90
26053;DHT22;13826;51.186;4.450;2023-02-13T01:24:58;7.00;95.60
26053;DHT22;13826;51.186;4.450;2023-02-13T01:27:24;7.00;96.10
26053;DHT22;13826;51.186;4.450;2023-02-13T01:29:49;7.00;94.70
26053;DHT22;13826;51.186;4.450;2023-02-13T01:32:15;7.00;94.00
26053;DHT22;13826;51.186;4.450;2023-02-13T01:34:40;6.80;93.50
26053;DHT22;13826;51.186;4.450;2023-02-13T01:37:06;6.60;95.90
26053;DHT22;13826;51.186;4.450;2023-02-13T01:39:32;6.60;97.40
26053;DHT22;13826;51.186;4.450;2023-02-13T01:41:57;6.70;96.50
26053;DHT22;13826;51.186;4.450;2023-02-13T01:47:07;6.70;95.70
26053;DHT22;13826;51.186;4.450;2023-02-13T01:49:33;6.70;95.20
26053;DHT22;13826;51.186;4.450;2023-02-13T01:51:59;6.70;94.10
26053;DHT22;13826;51.186;4.450;2023-02-13T01:54:26;6.70;93.80
26053;DHT22;13826;51.186;4.450;2023-02-13T01:56:59;6.60;93.50
26053;DHT22;13826;51.186;4.450;2023-02-13T01:59:28;6.60;93.90
26053;DHT22;13826;51.186;4.450;2023-02-13T02:01:55;6.60;93.70
26053;DHT22;13826;51.186;4.450;2023-02-13T02:04:23;6.50;93.10
26053;DHT22;13826;51.186;4.450;2023-02-13T02:06:51;6.50;93.10
26053;DHT22;13826;51.186;4.450;2023-02-13T02:09:18;6.40;93.20
26053;DHT22;13826;51.186;4.450;2023-02-13T02:11:59;6.50;93.10
26053;DHT22;13826;51.186;4.450;2023-02-13T02:14:25;6.40;92.80
26053;DHT22;13826;51.186;4.450;2023-02-13T02:16:51;6.30;93.10
26053;DHT22;13826;51.186;4.450;2023-02-13T02:39:45;6.00;94.90
26053;DHT22;13826;51.186;4.450;2023-02-13T02:47:25;5.50;99.90
26053;DHT22;13826;51.186;4.450;2023-02-13T02:53:02;5.30;99.90
26053;DHT22;13826;51.186;4.450;2023-02-13T02:57:58;5.50;99.90
26053;DHT22;13826;51.186;4.450;2023-02-13T03:00:43;5.50;99.90
26053;DHT22;13826;51.186;4.450;2023-02-13T03:03:28;5.50;99.90
26053;DHT22;13826;51.186;4.450;2023-02-13T03:06:27;5.40;99.90
26053;DHT22;13826;51.186;4.450;2023-02-13T03:08:56;5.30;99.90
26053;DHT22;13826;51.186;4.450;2023-02-13T03:11:41;5.30;99.90
26053;DHT22;13826;51.186;4.450;2023-02-13T03:14:27;5.30;99.90
26053;DHT22;13826;51.186;4.450;2023-02-13T03:16:53;5.30;99.90
26053;DHT22;13826;51.186;4.450;2023-02-13T03:25:05;5.20;99.90
26053;DHT22;13826;51.186;4.450;2023-02-13T03:32:59;5.30;99.90
26053;DHT22;13826;51.186;4.450;2023-02-13T03:38:22;4.90;99.90
26053;DHT22;13826;51.186;4.450;2023-02-13T03:41:33;4.90;99.90
26053;DHT22;13826;51.186;4.450;2023-02-13T03:46:10;4.90;99.90
26053;DHT22;13826;51.186;4.450;2023-02-13T03:48:37;4.80;99.90
26053;DHT22;13826;51.186;4.450;2023-02-13T03:51:29;4.90;99.90
26053;DHT22;13826;51.186;4.450;2023-02-13T03:53:58;4.80;99.90
26053;DHT22;13826;51.186;4.450;2023-02-13T03:56:25;4.90;99.90
26053;DHT22;13826;51.186;4.450;2023-02-13T03:59:14;4.90;99.90
26053;DHT22;13826;51.186;4.450;2023-02-13T04:01:58;4.90;99.90
26053;DHT22;13826;51.186;4.450;2023-02-13T04:04:37;4.90;99.90
26053;DHT22;13826;51.186;4.450;2023-02-13T04:07:09;4.90;99.90
26053;DHT22;13826;51.186;4.450;2023-02-13T04:09:36;4.80;99.90
26053;DHT22;13826;51.186;4.450;2023-02-13T04:12:12;4.80;99.90
26053;DHT22;13826;51.186;4.450;2023-02-13T04:17:18;4.90;99.90
26053;DHT22;13826;51.186;4.450;2023-02-13T04:19:46;4.70;99.90
26053;DHT22;13826;51.186;4.450;2023-02-13T04:22:11;4.80;99.90
26053;DHT22;13826;51.186;4.450;2023-02-13T04:24:37;4.80;99.90
26053;DHT22;13826;51.186;4.450;2023-02-13T04:27:03;4.70;99.90
26053;DHT22;13826;51.186;4.450;2023-02-13T04:29:28;4.70;99.90
26053;DHT22;13826;51.186;4.450;2023-02-13T04:31:54;4.70;99.90
26053;DHT22;13826;51.186;4.450;2023-02-13T04:34:19;4.60;99.90
26053;DHT22;13826;51.186;4.450;2023-02-13T04:36:45;4.50;99.90
26053;DHT22;13826;51.186;4.450;2023-02-13T04:39:11;4.50;99.90
26053;DHT22;13826;51.186;4.450;2023-02-13T04:41:36;4.40;99.90
26053;DHT22;13826;51.186;4.450;2023-02-13T04:44:02;4.40;99.90
26053;DHT22;13826;51.186;4.450;2023-02-13T04:46:28;4.50;99.90
26053;DHT22;13826;51.186;4.450;2023-02-13T04:48:54;4.30;99.90
26053;DHT22;13826;51.186;4.450;2023-02-13T04:51:19;4.40;99.90
26053;DHT22;13826;51.186;4.450;2023-02-13T04:53:45;4.40;99.90
26053;DHT22;13826;51.186;4.450;2023-02-13T04:56:10;4.50;99.90
26053;DHT22;13826;51.186;4.450;2023-02-13T04:58:36;4.60;99.90
26053;DHT22;13826;51.186;4.450;2023-02-13T05:01:01;4.70;99.90
26053;DHT22;13826;51.186;4.450;2023-02-13T05:03:27;4.70;99.90
26053;DHT22;13826;51.186;4.450;2023-02-13T05:05:52;4.70;99.90
26053;DHT22;13826;51.186;4.450;2023-02-13T05:08:18;4.90;99.90
26053;DHT22;13826;51.186;4.450;2023-02-13T05:10:44;5.00;99.90
26053;DHT22;13826;51.186;4.450;2023-02-13T05:13:09;5.00;99.90
26053;DHT22;13826;51.186;4.450;2023-02-13T05:15:36;5.00;99.90
26053;DHT22;13826;51.186;4.450;2023-02-13T05:18:01;5.10;99.90
26053;DHT22;13826;51.186;4.450;2023-02-13T05:20:27;5.10;99.90
26053;DHT22;13826;51.186;4.450;2023-02-13T05:22:53;4.90;99.90
26053;DHT22;13826;51.186;4.450;2023-02-13T05:25:39;4.80;99.90
26053;DHT22;13826;51.186;4.450;2023-02-13T05:28:05;4.70;99.90
26053;DHT22;13826;51.186;4.450;2023-02-13T05:30:51;4.60;99.90
26053;DHT22;13826;51.186;4.450;2023-02-13T05:33:16;4.50;99.90
26053;DHT22;13826;51.186;4.450;2023-02-13T05:35:42;4.30;99.90
26053;DHT22;13826;51.186;4.450;2023-02-13T05:38:07;4.00;99.90
26053;DHT22;13826;51.186;4.450;2023-02-13T05:40:33;4.10;99.90
26053;DHT22;13826;51.186;4.450;2023-02-13T05:42:58;4.10;99.90
26053;DHT22;13826;51.186;4.450;2023-02-13T05:45:24;3.90;99.90
26053;DHT22;13826;51.186;4.450;2023-02-13T05:47:49;3.90;99.90
26053;DHT22;13826;51.186;4.450;2023-02-13T05:50:15;3.70;99.90
26053;DHT22;13826;51.186;4.450;2023-02-13T05:52:40;3.60;99.90
26053;DHT22;13826;51.186;4.450;2023-02-13T05:55:06;3.50;99.90
26053;DHT22;13826;51.186;4.450;2023-02-13T05:57:35;3.50;99.90
26053;DHT22;13826;51.186;4.450;2023-02-13T06:00:02;3.30;99.90
26053;DHT22;13826;51.186;4.450;2023-02-13T06:02:28;3.30;99.90
26053;DHT22;13826;51.186;4.450;2023-02-13T06:04:54;3.30;99.90
26053;DHT22;13826;51.186;4.450;2023-02-13T06:07:19;3.30;99.90
26053;DHT22;13826;51.186;4.450;2023-02-13T06:09:45;3.20;99.90
26053;DHT22;13826;51.186;4.450;2023-02-13T06:12:10;3.10;99.90
26053;DHT22;13826;51.186;4.450;2023-02-13T06:14:36;3.10;99.90
26053;DHT22;13826;51.186;4.450;2023-02-13T06:17:01;3.10;99.90
26053;DHT22;13826;51.186;4.450;2023-02-13T06:19:27;3.20;99.90
26053;DHT22;13826;51.186;4.450;2023-02-13T06:21:53;3.10;99.90
26053;DHT22;13826;51.186;4.450;2023-02-13T06:24:18;3.00;99.90
26053;DHT22;13826;51.186;4.450;2023-02-13T06:26:44;2.90;99.90
26053;DHT22;13826;51.186;4.450;2023-02-13T06:29:09;2.70;99.90
26053;DHT22;13826;51.186;4.450;2023-02-13T06:31:37;2.70;99.90
26053;DHT22;13826;51.186;4.450;2023-02-13T06:34:02;2.60;99.90
26053;DHT22;13826;51.186;4.450;2023-02-13T06:36:28;2.80;99.90
26053;DHT22;13826;51.186;4.450;2023-02-13T06:38:54;2.90;99.90
26053;DHT22;13826;51.186;4.450;2023-02-13T06:41:19;3.00;99.90
26053;DHT22;13826;51.186;4.450;2023-02-13T06:43:45;3.00;99.90
26053;DHT22;13826;51.186;4.450;2023-02-13T06:46:10;2.90;99.90
26053;DHT22;13826;51.186;4.450;2023-02-13T06:48:36;2.90;99.90
26053;DHT22;13826;51.186;4.450;2023-02-13T06:51:01;2.90;99.90
26053;DHT22;13826;51.186;4.450;2023-02-13T06:53:27;2.90;99.90
26053;DHT22;13826;51.186;4.450;2023-02-13T06:55:54;2.90;99.90
26053;DHT22;13826;51.186;4.450;2023-02-13T06:58:20;2.90;99.90
26053;DHT22;13826;51.186;4.450;2023-02-13T07:00:45;2.90;99.90
26053;DHT22;13826;51.186;4.450;2023-02-13T07:03:11;2.80;99.90
26053;DHT22;13826;51.186;4.450;2023-02-13T07:05:40;2.80;99.90
26053;DHT22;13826;51.186;4.450;2023-02-13T07:08:07;2.70;99.90
26053;DHT22;13826;51.186;4.450;2023-02-13T07:10:34;2.70;99.90
26053;DHT22;13826;51.186;4.450;2023-02-13T07:13:00;2.60;99.90
26053;DHT22;13826;51.186;4.450;2023-02-13T07:15:26;2.70;99.90
26053;DHT22;13826;51.186;4.450;2023-02-13T07:17:55;2.80;99.90
26053;DHT22;13826;51.186;4.450;2023-02-13T07:20:21;2.80;99.90
26053;DHT22;13826;51.186;4.450;2023-02-13T07:22:47;2.90;99.90
26053;DHT22;13826;51.186;4.450;2023-02-13T07:25:12;2.90;99.90
26053;DHT22;13826;51.186;4.450;2023-02-13T07:27:38;2.90;99.90
26053;DHT22;13826;51.186;4.450;2023-02-13T07:30:04;2.90;99.90
26053;DHT22;13826;51.186;4.450;2023-02-13T07:32:29;3.00;99.90
26053;DHT22;13826;51.186;4.450;2023-02-13T07:34:55;3.10;99.90
26053;DHT22;13826;51.186;4.450;2023-02-13T07:37:20;3.20;99.90
26053;DHT22;13826;51.186;4.450;2023-02-13T07:39:46;3.30;99.90
26053;DHT22;13826;51.186;4.450;2023-02-13T07:42:12;3.40;99.90
26053;DHT22;13826;51.186;4.450;2023-02-13T07:44:37;3.30;99.90
26053;DHT22;13826;51.186;4.450;2023-02-13T07:47:03;3.30;99.90
26053;DHT22;13826;51.186;4.450;2023-02-13T07:49:28;3.30;99.90
26053;DHT22;13826;51.186;4.450;2023-02-13T07:51:55;3.40;99.90
26053;DHT22;13826;51.186;4.450;2023-02-13T07:54:20;3.50;99.90
26053;DHT22;13826;51.186;4.450;2023-02-13T07:56:46;3.50;99.90
26053;DHT22;13826;51.186;4.450;2023-02-13T07:59:11;3.50;99.90
26053;DHT22;13826;51.186;4.450;2023-02-13T08:01:37;3.50;99.90
26053;DHT22;13826;51.186;4.450;2023-02-13T08:04:02;3.50;99.90
26053;DHT22;13826;51.186;4.450;2023-02-13T08:06:28;3.60;99.90
26053;DHT22;13826;51.186;4.450;2023-02-13T08:08:53;3.80;99.90
26053;DHT22;13826;51.186;4.450;2023-02-13T08:11:40;3.80;99.90
26053;DHT22;13826;51.186;4.450;2023-02-13T08:14:21;3.70;99.90
26053;DHT22;13826;51.186;4.450;2023-02-13T08:16:47;3.80;99.90
26053;DHT22;13826;51.186;4.450;2023-02-13T08:19:12;3.80;99.90
26053;DHT22;13826;51.186;4.450;2023-02-13T08:21:38;3.80;99.90
26053;DHT22;13826;51.186;4.450;2023-02-13T08:24:05;4.00;99.90
26053;DHT22;13826;51.186;4.450;2023-02-13T08:26:31;4.60;99.90
26053;DHT22;13826;51.186;4.450;2023-02-13T08:28:56;5.00;99.90
26053;DHT22;13826;51.186;4.450;2023-02-13T08:31:22;5.50;99.90
26053;DHT22;13826;51.186;4.450;2023-02-13T08:33:48;6.10;99.90
26053;DHT22;13826;51.186;4.450;2023-02-13T08:36:14;6.70;99.90
26053;DHT22;13826;51.186;4.450;2023-02-13T08:38:40;7.20;97.50
26053;DHT22;13826;51.186;4.450;2023-02-13T08:41:05;7.60;93.00
26053;DHT22;13826;51.186;4.450;2023-02-13T08:43:31;8.20;90.00
26053;DHT22;13826;51.186;4.450;2023-02-13T08:45:57;8.80;76.20
26053;DHT22;13826;51.186;4.450;2023-02-13T08:48:26;9.80;56.70
26053;DHT22;13826;51.186;4.450;2023-02-13T08:50:51;11.50;23.30
26053;DHT22;13826;51.186;4.450;2023-02-13T08:53:17;13.00;1.00
26053;DHT22;13826;51.186;4.450;2023-02-13T08:55:48;14.50;99.90
26053;DHT22;13826;51.186;4.450;2023-02-13T08:58:15;14.70;1.00
26053;DHT22;13826;51.186;4.450;2023-02-13T09:00:41;15.80;99.90
26053;DHT22;13826;51.186;4.450;2023-02-13T09:03:06;15.50;8.30
26053;DHT22;13826;51.186;4.450;2023-02-13T09:05:32;15.30;1.00
26053;DHT22;13826;51.186;4.450;2023-02-13T09:08:01;16.00;99.90
26053;DHT22;13826;51.186;4.450;2023-02-13T09:10:27;16.90;99.90
26053;DHT22;13826;51.186;4.450;2023-02-13T09:12:53;18.20;1.00
26053;DHT22;13826;51.186;4.450;2023-02-13T09:15:19;19.30;1.00
26053;DHT22;13826;51.186;4.450;2023-02-13T09:17:44;19.40;99.90
26053;DHT22;13826;51.186;4.450;2023-02-13T09:20:10;18.60;1.00
26053;DHT22;13826;51.186;4.450;2023-02-13T09:22:38;18.50;1.00
26053;DHT22;13826;51.186;4.450;2023-02-13T09:25:04;18.70;1.00
26053;DHT22;13826;51.186;4.450;2023-02-13T09:27:30;19.50;1.00
26053;DHT22;13826;51.186;4.450;2023-02-13T09:29:55;19.60;99.90
26053;DHT22;13826;51.186;4.450;2023-02-13T09:32:21;19.90;99.90
26053;DHT22;13826;51.186;4.450;2023-02-13T09:34:46;20.40;1.00
26053;DHT22;13826;51.186;4.450;2023-02-13T09:37:15;21.00;1.00
26053;DHT22;13826;51.186;4.450;2023-02-13T09:39:40;21.10;1.00
26053;DHT22;13826;51.186;4.450;2023-02-13T09:42:12;21.40;1.00
26053;DHT22;13826;51.186;4.450;2023-02-13T09:44:39;21.00;1.00
26053;DHT22;13826;51.186;4.450;2023-02-13T09:49:36;21.70;1.00
26053;DHT22;13826;51.186;4.450;2023-02-13T09:52:03;21.10;1.00
26053;DHT22;13826;51.186;4.450;2023-02-13T09:54:28;21.90;1.00
26053;DHT22;13826;51.186;4.450;2023-02-13T10:02:00;21.50;1.00
26053;DHT22;13826;51.186;4.450;2023-02-13T10:04:31;21.50;1.00
26053;DHT22;13826;51.186;4.450;2023-02-13T10:07:13;21.60;1.00
26053;DHT22;13826;51.186;4.450;2023-02-13T10:15:04;23.10;99.90
26053;DHT22;13826;51.186;4.450;2023-02-13T10:17:37;23.20;99.90
26053;DHT22;13826;51.186;4.450;2023-02-13T10:20:14;22.50;99.90
26053;DHT22;13826;51.186;4.450;2023-02-13T10:22:43;23.70;99.90
26053;DHT22;13826;51.186;4.450;2023-02-13T10:25:12;24.00;99.90
26053;DHT22;13826;51.186;4.450;2023-02-13T10:27:44;22.60;99.90
26053;DHT22;13826;51.186;4.450;2023-02-13T10:30:24;23.20;99.90
26053;DHT22;13826;51.186;4.450;2023-02-13T10:38:31;24.30;99.90
26053;DHT22;13826;51.186;4.450;2023-02-13T10:43:31;23.50;99.90
26053;DHT22;13826;51.186;4.450;2023-02-13T10:46:12;23.40;99.90
26053;DHT22;13826;51.186;4.450;2023-02-13T10:48:58;24.00;99.90
26053;DHT22;13826;51.186;4.450;2023-02-13T10:56:40;24.30;99.90
26053;DHT22;13826;51.186;4.450;2023-02-13T11:04:03;25.70;99.90
26053;DHT22;13826;51.186;4.450;2023-02-13T11:06:29;25.30;99.90
26053;DHT22;13826;51.186;4.450;2023-02-13T11:08:54;25.40;97.60
26053;DHT22;13826;51.186;4.450;2023-02-13T11:11:39;24.60;99.90
26053;DHT22;13826;51.186;4.450;2023-02-13T11:14:23;25.10;99.90
26053;DHT22;13826;51.186;4.450;2023-02-13T11:16:56;23.90;99.90
26053;DHT22;13826;51.186;4.450;2023-02-13T11:19:33;23.50;99.90
26053;DHT22;13826;51.186;4.450;2023-02-13T11:22:01;23.50;99.90
26053;DHT22;13826;51.186;4.450;2023-02-13T11:24:27;24.70;99.90
26053;DHT22;13826;51.186;4.450;2023-02-13T11:26:58;24.90;99.90
26053;DHT22;13826;51.186;4.450;2023-02-13T11:29:25;24.40;99.90
26053;DHT22;13826;51.186;4.450;2023-02-13T11:34:32;24.00;99.90
26053;DHT22;13826;51.186;4.450;2023-02-13T11:39:39;23.50;99.90
26053;DHT22;13826;51.186;4.450;2023-02-13T11:47:38;21.30;1.00
26053;DHT22;13826;51.186;4.450;2023-02-13T11:50:05;21.30;1.00
26053;DHT22;13826;51.186;4.450;2023-02-13T11:52:32;21.10;1.00
26053;DHT22;13826;51.186;4.450;2023-02-13T11:55:00;21.40;1.00
26053;DHT22;13826;51.186;4.450;2023-02-13T11:57:35;22.10;1.00
26053;DHT22;13826;51.186;4.450;2023-02-13T12:00:24;21.50;1.00
26053;DHT22;13826;51.186;4.450;2023-02-13T12:02:47;20.60;1.00
26053;DHT22;13826;51.186;4.450;2023-02-13T12:05:20;21.10;1.00
26053;DHT22;13826;51.186;4.450;2023-02-13T12:07:46;20.50;95.30
26053;DHT22;13826;51.186;4.450;2023-02-13T12:10:17;21.20;1.00
26053;DHT22;13826;51.186;4.450;2023-02-13T12:12:47;21.40;1.00
26053;DHT22;13826;51.186;4.450;2023-02-13T12:15:18;20.90;1.00
26053;DHT22;13826;51.186;4.450;2023-02-13T12:17:45;21.40;1.00
26053;DHT22;13826;51.186;4.450;2023-02-13T12:20:15;21.50;1.00
26053;DHT22;13826;51.186;4.450;2023-02-13T12:25:28;20.40;68.90
26053;DHT22;13826;51.186;4.450;2023-02-13T12:30:40;18.90;1.00
26053;DHT22;13826;51.186;4.450;2023-02-13T12:33:13;18.30;1.00
26053;DHT22;13826;51.186;4.450;2023-02-13T12:36:01;18.30;44.00
26053;DHT22;13826;51.186;4.450;2023-02-13T12:38:40;18.20;99.90
26053;DHT22;13826;51.186;4.450;2023-02-13T12:41:13;17.50;99.90
26053;DHT22;13826;51.186;4.450;2023-02-13T12:43:48;16.70;91.30
26053;DHT22;13826;51.186;4.450;2023-02-13T12:54:13;15.60;1.00
26053;DHT22;13826;51.186;4.450;2023-02-13T12:59:29;15.30;99.90
26053;DHT22;13826;51.186;4.450;2023-02-13T13:07:24;15.60;99.90
26053;DHT22;13826;51.186;4.450;2023-02-13T13:10:35;15.40;99.90
26053;DHT22;13826;51.186;4.450;2023-02-13T13:17:47;15.00;1.00
26053;DHT22;13826;51.186;4.450;2023-02-13T13:23:27;14.70;1.00
26053;DHT22;13826;51.186;4.450;2023-02-13T13:28:16;14.60;1.00
26053;DHT22;13826;51.186;4.450;2023-02-13T13:30:43;14.40;1.00
26053;DHT22;13826;51.186;4.450;2023-02-13T13:35:35;14.40;1.00
26053;DHT22;13826;51.186;4.450;2023-02-13T13:43:02;13.90;1.00
26053;DHT22;13826;51.186;4.450;2023-02-13T13:50:48;14.00;1.00
26053;DHT22;13826;51.186;4.450;2023-02-13T13:53:14;14.10;1.00
26053;DHT22;13826;51.186;4.450;2023-02-13T13:58:22;14.00;1.00
26053;DHT22;13826;51.186;4.450;2023-02-13T14:03:33;14.10;1.00
26053;DHT22;13826;51.186;4.450;2023-02-13T14:06:04;14.30;1.00
26053;DHT22;13826;51.186;4.450;2023-02-13T14:11:05;14.40;1.00
26053;DHT22;13826;51.186;4.450;2023-02-13T14:13:33;14.30;1.00
26053;DHT22;13826;51.186;4.450;2023-02-13T14:15:59;14.30;1.00
26053;DHT22;13826;51.186;4.450;2023-02-13T14:18:25;14.10;1.00
26053;DHT22;13826;51.186;4.450;2023-02-13T14:20:52;14.00;1.00
26053;DHT22;13826;51.186;4.450;2023-02-13T14:25:48;13.80;1.00
26053;DHT22;13826;51.186;4.450;2023-02-13T14:28:18;14.00;1.00
26053;DHT22;13826;51.186;4.450;2023-02-13T14:30:45;13.80;1.00
26053;DHT22;13826;51.186;4.450;2023-02-13T14:33:21;13.50;1.00
26053;DHT22;13826;51.186;4.450;2023-02-13T14:35:57;13.50;1.00
26053;DHT22;13826;51.186;4.450;2023-02-13T14:38:23;13.60;1.00
26053;DHT22;13826;51.186;4.450;2023-02-13T14:40:50;13.50;1.00
26053;DHT22;13826;51.186;4.450;2023-02-13T14:43:26;13.50;1.00
26053;DHT22;13826;51.186;4.450;2023-02-13T14:45:53;13.60;1.00
26053;DHT22;13826;51.186;4.450;2023-02-13T14:48:20;13.60;1.00
26053;DHT22;13826;51.186;4.450;2023-02-13T14:50:50;13.80;1.00
26053;DHT22;13826;51.186;4.450;2023-02-13T14:53:23;13.80;1.00
26053;DHT22;13826;51.186;4.450;2023-02-13T14:55:58;13.90;1.00
26053;DHT22;13826;51.186;4.450;2023-02-13T14:58:28;13.80;1.00
26053;DHT22;13826;51.186;4.450;2023-02-13T15:01:04;13.80;1.00
26053;DHT22;13826;51.186;4.450;2023-02-13T15:06:02;14.10;1.00
26053;DHT22;13826;51.186;4.450;2023-02-13T15:08:33;14.00;1.00
26053;DHT22;13826;51.186;4.450;2023-02-13T15:11:00;14.00;1.00
26053;DHT22;13826;51.186;4.450;2023-02-13T15:13:30;13.80;1.00
26053;DHT22;13826;51.186;4.450;2023-02-13T15:15:58;13.70;1.00
26053;DHT22;13826;51.186;4.450;2023-02-13T15:18:30;13.70;1.00
26053;DHT22;13826;51.186;4.450;2023-02-13T15:20:57;13.80;1.00
26053;DHT22;13826;51.186;4.450;2023-02-13T15:23:25;13.60;1.00
26053;DHT22;13826;51.186;4.450;2023-02-13T15:25:56;13.70;1.00
26053;DHT22;13826;51.186;4.450;2023-02-13T15:28:22;13.70;1.00
26053;DHT22;13826;51.186;4.450;2023-02-13T15:30:52;13.70;1.00
26053;DHT22;13826;51.186;4.450;2023-02-13T15:33:19;13.60;1.00
26053;DHT22;13826;51.186;4.450;2023-02-13T15:35:44;13.50;1.00
26053;DHT22;13826;51.186;4.450;2023-02-13T15:38:23;13.50;1.00
26053;DHT22;13826;51.186;4.450;2023-02-13T15:40:49;13.60;1.00
26053;DHT22;13826;51.186;4.450;2023-02-13T15:43:32;13.50;1.00
26053;DHT22;13826;51.186;4.450;2023-02-13T15:46:00;13.40;1.00
26053;DHT22;13826;51.186;4.450;2023-02-13T15:48:26;13.40;1.00
26053;DHT22;13826;51.186;4.450;2023-02-13T15:50:53;13.50;1.00
26053;DHT22;13826;51.186;4.450;2023-02-13T15:53:18;13.50;1.00
26053;DHT22;13826;51.186;4.450;2023-02-13T15:55:54;13.40;1.00
26053;DHT22;13826;51.186;4.450;2023-02-13T15:58:20;13.40;1.00
26053;DHT22;13826;51.186;4.450;2023-02-13T16:00:45;13.30;1.00
26053;DHT22;13826;51.186;4.450;2023-02-13T16:03:15;13.30;1.00
26053;DHT22;13826;51.186;4.450;2023-02-13T16:05:41;13.10;1.00
26053;DHT22;13826;51.186;4.450;2023-02-13T16:10:49;13.00;1.00
26053;DHT22;13826;51.186;4.450;2023-02-13T16:13:32;13.00;1.00
26053;DHT22;13826;51.186;4.450;2023-02-13T16:15:58;13.00;1.00
26053;DHT22;13826;51.186;4.450;2023-02-13T16:18:24;12.80;1.00
26053;DHT22;13826;51.186;4.450;2023-02-13T16:20:53;12.70;1.00
26053;DHT22;13826;51.186;4.450;2023-02-13T16:23:19;12.80;1.00
26053;DHT22;13826;51.186;4.450;2023-02-13T16:25:46;12.70;1.00
26053;DHT22;13826;51.186;4.450;2023-02-13T16:30:44;13.00;1.00
26053;DHT22;13826;51.186;4.450;2023-02-13T16:35:39;13.00;1.00
26053;DHT22;13826;51.186;4.450;2023-02-13T16:41:49;12.80;1.00
26053;DHT22;13826;51.186;4.450;2023-02-13T16:43:51;12.70;1.00
26053;DHT22;13826;51.186;4.450;2023-02-13T16:53:56;12.30;4.40
26053;DHT22;13826;51.186;4.450;2023-02-13T16:56:22;12.40;5.40
26053;DHT22;13826;51.186;4.450;2023-02-13T16:58:48;12.30;6.40
26053;DHT22;13826;51.186;4.450;2023-02-13T17:01:14;12.30;10.20
26053;DHT22;13826;51.186;4.450;2023-02-13T17:03:42;12.00;18.80
26053;DHT22;13826;51.186;4.450;2023-02-13T17:06:08;12.00;18.10
26053;DHT22;13826;51.186;4.450;2023-02-13T17:08:34;12.00;18.80
26053;DHT22;13826;51.186;4.450;2023-02-13T17:11:01;11.90;17.10
26053;DHT22;13826;51.186;4.450;2023-02-13T17:13:27;11.90;19.60
26053;DHT22;13826;51.186;4.450;2023-02-13T17:15:53;12.00;17.60
26053;DHT22;13826;51.186;4.450;2023-02-13T17:18:19;11.90;17.90
26053;DHT22;13826;51.186;4.450;2023-02-13T17:20:45;11.80;20.80
26053;DHT22;13826;51.186;4.450;2023-02-13T17:23:15;11.70;22.80
26053;DHT22;13826;51.186;4.450;2023-02-13T17:25:41;11.60;25.80
26053;DHT22;13826;51.186;4.450;2023-02-13T17:28:12;11.50;28.20
26053;DHT22;13826;51.186;4.450;2023-02-13T17:30:39;11.50;28.00
26053;DHT22;13826;51.186;4.450;2023-02-13T17:33:06;11.40;30.00
26053;DHT22;13826;51.186;4.450;2023-02-13T17:35:32;11.20;32.90
26053;DHT22;13826;51.186;4.450;2023-02-13T17:37:57;11.10;35.10
26053;DHT22;13826;51.186;4.450;2023-02-13T17:40:24;11.10;36.70
26053;DHT22;13826;51.186;4.450;2023-02-13T17:42:53;10.80;45.30
26053;DHT22;13826;51.186;4.450;2023-02-13T17:45:20;10.70;46.30
26053;DHT22;13826;51.186;4.450;2023-02-13T17:47:46;10.70;43.70
26053;DHT22;13826;51.186;4.450;2023-02-13T17:50:12;10.60;47.00
26053;DHT22;13826;51.186;4.450;2023-02-13T17:52:38;10.60;45.90
26053;DHT22;13826;51.186;4.450;2023-02-13T17:55:04;10.60;44.00
26053;DHT22;13826;51.186;4.450;2023-02-13T17:57:30;10.40;50.00
26053;DHT22;13826;51.186;4.450;2023-02-13T17:59:56;10.30;54.60
26053;DHT22;13826;51.186;4.450;2023-02-13T18:02:23;10.20;54.90
26053;DHT22;13826;51.186;4.450;2023-02-13T18:04:49;10.20;53.60
26053;DHT22;13826;51.186;4.450;2023-02-13T18:07:17;10.30;52.90
26053;DHT22;13826;51.186;4.450;2023-02-13T18:09:43;10.20;51.80
26053;DHT22;13826;51.186;4.450;2023-02-13T18:12:13;10.30;51.50
26053;DHT22;13826;51.186;4.450;2023-02-13T18:14:39;10.20;51.00
26053;DHT22;13826;51.186;4.450;2023-02-13T18:17:04;10.10;52.50
26053;DHT22;13826;51.186;4.450;2023-02-13T18:19:30;9.70;62.00
26053;DHT22;13826;51.186;4.450;2023-02-13T18:21:56;9.70;63.50
26053;DHT22;13826;51.186;4.450;2023-02-13T18:24:21;9.60;65.40
26053;DHT22;13826;51.186;4.450;2023-02-13T18:26:47;9.60;65.10
26053;DHT22;13826;51.186;4.450;2023-02-13T18:29:12;9.60;64.60
26053;DHT22;13826;51.186;4.450;2023-02-13T18:31:38;9.60;64.30
26053;DHT22;13826;51.186;4.450;2023-02-13T18:34:03;9.60;64.70
26053;DHT22;13826;51.186;4.450;2023-02-13T18:36:29;9.50;64.90
26053;DHT22;13826;51.186;4.450;2023-02-13T18:38:54;9.50;64.10
26053;DHT22;13826;51.186;4.450;2023-02-13T18:41:20;9.50;66.40